sensor_id;sensor_type;location;lat;lon;timestamp;P1;P2;P0
56688;PMS5003;42565;53.342;-1.534;2024-01-16T00:00:26;5;5;
56688;PMS5003;42565;53.342;-1.534;2024-01-16T00:02:53;5;5;
56688;PMS5003;42565;53.342;-1.534;2024-01-16T00:05:20;5;5;
56688;PMS5003;42565;53.342;-1.534;2024-01-16T00:07:47;7;6;
56688;PMS5003;42565;53.342;-1.534;2024-01-16T00:10:14;6;5;
56688;PMS5003;42565;53.342;-1.534;2024-01-16T00:12:41;5;5;
56688;PMS5003;42565;53.342;-1.534;2024-01-16T00:15:08;6;5;
56688;PMS5003;42565;53.342;-1.534;2024-01-16T00:17:36;6;6;
56688;PMS5003;42565;53.342;-1.534;2024-01-16T00:20:03;4;4;
56688;PMS5003;42565;53.342;-1.534;2024-01-16T00:22:31;5;4;
56688;PMS5003;42565;53.342;-1.534;2024-01-16T00:25:10;6;6;
56688;PMS5003;42565;53.342;-1.534;2024-01-16T00:27:39;5;4;
56688;PMS5003;42565;53.342;-1.534;2024-01-16T00:30:06;8;7;
56688;PMS5003;42565;53.342;-1.534;2024-01-16T00:32:33;4;4;
56688;PMS5003;42565;53.342;-1.534;2024-01-16T00:35:00;5;4;
56688;PMS5003;42565;53.342;-1.534;2024-01-16T00:37:27;5;5;
56688;PMS5003;42565;53.342;-1.534;2024-01-16T00:39:54;6;5;
56688;PMS5003;42565;53.342;-1.534;2024-01-16T00:42:21;6;5;
56688;PMS5003;42565;53.342;-1.534;2024-01-16T00:44:48;6;5;
56688;PMS5003;42565;53.342;-1.534;2024-01-16T00:47:15;5;4;
56688;PMS5003;42565;53.342;-1.534;2024-01-16T00:49:42;7;7;
56688;PMS5003;42565;53.342;-1.534;2024-01-16T00:52:09;10;8;
56688;PMS5003;42565;53.342;-1.534;2024-01-16T00:54:37;8;7;
56688;PMS5003;42565;53.342;-1.534;2024-01-16T00:57:04;9;8;
56688;PMS5003;42565;53.342;-1.534;2024-01-16T00:59:31;8;8;
56688;PMS5003;42565;53.342;-1.534;2024-01-16T01:01:57;8;7;
56688;PMS5003;42565;53.342;-1.534;2024-01-16T01:04:24;7;6;
56688;PMS5003;42565;53.342;-1.534;2024-01-16T01:06:51;6;5;
56688;PMS5003;42565;53.342;-1.534;2024-01-16T01:09:18;10;8;
56688;PMS5003;42565;53.342;-1.534;2024-01-16T01:11:46;7;7;
56688;PMS5003;42565;53.342;-1.534;2024-01-16T01:14:13;7;7;
56688;PMS5003;42565;53.342;-1.534;2024-01-16T01:16:40;6;6;
56688;PMS5003;42565;53.342;-1.534;2024-01-16T01:19:08;6;6;
56688;PMS5003;42565;53.342;-1.534;2024-01-16T01:21:35;8;7;
56688;PMS5003;42565;53.342;-1.534;2024-01-16T01:24:02;7;6;
56688;PMS5003;42565;53.342;-1.534;2024-01-16T01:26:34;7;7;
56688;PMS5003;42565;53.342;-1.534;2024-01-16T01:29:00;7;7;
56688;PMS5003;42565;53.342;-1.534;2024-01-16T01:31:27;8;8;
56688;PMS5003;42565;53.342;-1.534;2024-01-16T01:33:54;7;7;
56688;PMS5003;42565;53.342;-1.534;2024-01-16T01:36:21;9;7;
56688;PMS5003;42565;53.342;-1.534;2024-01-16T01:38:48;13;7;
56688;PMS5003;42565;53.342;-1.534;2024-01-16T01:41:15;7;5;
56688;PMS5003;42565;53.342;-1.534;2024-01-16T01:43:43;8;6;
56688;PMS5003;42565;53.342;-1.534;2024-01-16T01:46:12;6;6;
56688;PMS5003;42565;53.342;-1.534;2024-01-16T01:48:42;9;8;
56688;PMS5003;42565;53.342;-1.534;2024-01-16T01:51:11;9;9;
56688;PMS5003;42565;53.342;-1.534;2024-01-16T01:53:39;9;9;
56688;PMS5003;42565;53.342;-1.534;2024-01-16T01:56:11;12;10;
56688;PMS5003;42565;53.342;-1.534;2024-01-16T01:58:43;9;9;
56688;PMS5003;42565;53.342;-1.534;2024-01-16T02:01:12;8;7;
56688;PMS5003;42565;53.342;-1.534;2024-01-16T02:03:41;11;9;
56688;PMS5003;42565;53.342;-1.534;2024-01-16T02:06:10;8;8;
56688;PMS5003;42565;53.342;-1.534;2024-01-16T02:08:39;9;9;
56688;PMS5003;42565;53.342;-1.534;2024-01-16T02:11:06;10;9;
56688;PMS5003;42565;53.342;-1.534;2024-01-16T02:13:33;10;8;
56688;PMS5003;42565;53.342;-1.534;2024-01-16T02:16:01;11;10;
56688;PMS5003;42565;53.342;-1.534;2024-01-16T02:18:29;9;8;
56688;PMS5003;42565;53.342;-1.534;2024-01-16T02:20:57;10;9;
56688;PMS5003;42565;53.342;-1.534;2024-01-16T02:23:26;11;9;
56688;PMS5003;42565;53.342;-1.534;2024-01-16T02:25:54;9;9;
56688;PMS5003;42565;53.342;-1.534;2024-01-16T02:28:21;8;8;
56688;PMS5003;42565;53.342;-1.534;2024-01-16T02:30:48;7;7;
56688;PMS5003;42565;53.342;-1.534;2024-01-16T02:33:16;6;6;
56688;PMS5003;42565;53.342;-1.534;2024-01-16T02:35:42;7;6;
56688;PMS5003;42565;53.342;-1.534;2024-01-16T02:38:09;7;6;
56688;PMS5003;42565;53.342;-1.534;2024-01-16T02:40:36;10;9;
56688;PMS5003;42565;53.342;-1.534;2024-01-16T02:43:03;9;7;
56688;PMS5003;42565;53.342;-1.534;2024-01-16T02:45:30;8;8;
56688;PMS5003;42565;53.342;-1.534;2024-01-16T02:47:57;8;7;
56688;PMS5003;42565;53.342;-1.534;2024-01-16T02:50:24;7;6;
56688;PMS5003;42565;53.342;-1.534;2024-01-16T02:52:51;8;6;
56688;PMS5003;42565;53.342;-1.534;2024-01-16T02:55:18;4;4;
56688;PMS5003;42565;53.342;-1.534;2024-01-16T02:57:45;5;5;
56688;PMS5003;42565;53.342;-1.534;2024-01-16T03:00:12;5;4;
56688;PMS5003;42565;53.342;-1.534;2024-01-16T03:02:40;4;4;
56688;PMS5003;42565;53.342;-1.534;2024-01-16T03:05:07;5;4;
56688;PMS5003;42565;53.342;-1.534;2024-01-16T03:07:39;4;4;
56688;PMS5003;42565;53.342;-1.534;2024-01-16T03:10:07;5;4;
56688;PMS5003;42565;53.342;-1.534;2024-01-16T03:12:35;4;4;
56688;PMS5003;42565;53.342;-1.534;2024-01-16T03:15:02;4;3;
56688;PMS5003;42565;53.342;-1.534;2024-01-16T03:17:29;5;5;
56688;PMS5003;42565;53.342;-1.534;2024-01-16T03:19:56;4;3;
56688;PMS5003;42565;53.342;-1.534;2024-01-16T03:22:23;5;5;
56688;PMS5003;42565;53.342;-1.534;2024-01-16T03:24:50;5;3;
56688;PMS5003;42565;53.342;-1.534;2024-01-16T03:27:17;4;3;
56688;PMS5003;42565;53.342;-1.534;2024-01-16T03:29:44;3;3;
56688;PMS5003;42565;53.342;-1.534;2024-01-16T03:32:11;4;3;
56688;PMS5003;42565;53.342;-1.534;2024-01-16T03:34:38;4;4;
56688;PMS5003;42565;53.342;-1.534;2024-01-16T03:37:05;4;4;
56688;PMS5003;42565;53.342;-1.534;2024-01-16T03:39:32;5;4;
56688;PMS5003;42565;53.342;-1.534;2024-01-16T03:41:59;5;4;
56688;PMS5003;42565;53.342;-1.534;2024-01-16T03:44:26;4;4;
56688;PMS5003;42565;53.342;-1.534;2024-01-16T03:46:53;6;6;
56688;PMS5003;42565;53.342;-1.534;2024-01-16T03:49:20;7;7;
56688;PMS5003;42565;53.342;-1.534;2024-01-16T03:51:47;8;7;
56688;PMS5003;42565;53.342;-1.534;2024-01-16T03:54:14;8;8;
56688;PMS5003;42565;53.342;-1.534;2024-01-16T03:56:42;10;9;
56688;PMS5003;42565;53.342;-1.534;2024-01-16T03:59:09;10;9;
56688;PMS5003;42565;53.342;-1.534;2024-01-16T04:01:36;10;10;
56688;PMS5003;42565;53.342;-1.534;2024-01-16T04:04:03;13;11;
56688;PMS5003;42565;53.342;-1.534;2024-01-16T04:06:31;13;12;
56688;PMS5003;42565;53.342;-1.534;2024-01-16T04:08:58;14;14;
56688;PMS5003;42565;53.342;-1.534;2024-01-16T04:11:24;16;16;
56688;PMS5003;42565;53.342;-1.534;2024-01-16T04:13:52;17;16;
56688;PMS5003;42565;53.342;-1.534;2024-01-16T04:16:19;22;20;
56688;PMS5003;42565;53.342;-1.534;2024-01-16T04:18:47;21;20;
56688;PMS5003;42565;53.342;-1.534;2024-01-16T04:21:14;24;21;
56688;PMS5003;42565;53.342;-1.534;2024-01-16T04:23:42;22;19;
56688;PMS5003;42565;53.342;-1.534;2024-01-16T04:26:09;26;22;
56688;PMS5003;42565;53.342;-1.534;2024-01-16T04:28:37;26;25;
56688;PMS5003;42565;53.342;-1.534;2024-01-16T04:31:04;22;20;
56688;PMS5003;42565;53.342;-1.534;2024-01-16T04:33:31;25;23;
56688;PMS5003;42565;53.342;-1.534;2024-01-16T04:35:58;30;27;
56688;PMS5003;42565;53.342;-1.534;2024-01-16T04:38:26;23;21;
56688;PMS5003;42565;53.342;-1.534;2024-01-16T04:40:53;28;27;
56688;PMS5003;42565;53.342;-1.534;2024-01-16T04:43:20;23;23;
56688;PMS5003;42565;53.342;-1.534;2024-01-16T04:45:47;24;21;
56688;PMS5003;42565;53.342;-1.534;2024-01-16T04:48:15;29;26;
56688;PMS5003;42565;53.342;-1.534;2024-01-16T04:50:42;24;21;
56688;PMS5003;42565;53.342;-1.534;2024-01-16T04:53:09;25;22;
56688;PMS5003;42565;53.342;-1.534;2024-01-16T04:55:36;20;19;
56688;PMS5003;42565;53.342;-1.534;2024-01-16T04:58:03;22;22;
56688;PMS5003;42565;53.342;-1.534;2024-01-16T05:00:31;23;21;
56688;PMS5003;42565;53.342;-1.534;2024-01-16T05:02:58;19;17;
56688;PMS5003;42565;53.342;-1.534;2024-01-16T05:05:25;20;17;
56688;PMS5003;42565;53.342;-1.534;2024-01-16T05:07:52;18;16;
56688;PMS5003;42565;53.342;-1.534;2024-01-16T05:10:19;15;14;
56688;PMS5003;42565;53.342;-1.534;2024-01-16T05:12:46;20;18;
56688;PMS5003;42565;53.342;-1.534;2024-01-16T05:15:14;21;18;
56688;PMS5003;42565;53.342;-1.534;2024-01-16T05:17:41;19;18;
56688;PMS5003;42565;53.342;-1.534;2024-01-16T05:20:09;18;17;
56688;PMS5003;42565;53.342;-1.534;2024-01-16T05:22:37;20;18;
56688;PMS5003;42565;53.342;-1.534;2024-01-16T05:25:04;18;16;
56688;PMS5003;42565;53.342;-1.534;2024-01-16T05:27:32;14;14;
56688;PMS5003;42565;53.342;-1.534;2024-01-16T05:29:59;17;16;
56688;PMS5003;42565;53.342;-1.534;2024-01-16T05:32:26;17;16;
56688;PMS5003;42565;53.342;-1.534;2024-01-16T05:34:53;14;14;
56688;PMS5003;42565;53.342;-1.534;2024-01-16T05:37:20;17;17;
56688;PMS5003;42565;53.342;-1.534;2024-01-16T05:39:47;14;12;
56688;PMS5003;42565;53.342;-1.534;2024-01-16T05:42:14;14;12;
56688;PMS5003;42565;53.342;-1.534;2024-01-16T05:44:41;10;10;
56688;PMS5003;42565;53.342;-1.534;2024-01-16T05:47:08;11;11;
56688;PMS5003;42565;53.342;-1.534;2024-01-16T05:49:35;11;10;
56688;PMS5003;42565;53.342;-1.534;2024-01-16T05:52:02;13;11;
56688;PMS5003;42565;53.342;-1.534;2024-01-16T05:54:29;8;8;
56688;PMS5003;42565;53.342;-1.534;2024-01-16T05:56:56;9;9;
56688;PMS5003;42565;53.342;-1.534;2024-01-16T05:59:23;8;7;
56688;PMS5003;42565;53.342;-1.534;2024-01-16T06:01:50;6;6;
56688;PMS5003;42565;53.342;-1.534;2024-01-16T06:04:17;7;7;
56688;PMS5003;42565;53.342;-1.534;2024-01-16T06:06:44;5;5;
56688;PMS5003;42565;53.342;-1.534;2024-01-16T06:09:11;6;6;
56688;PMS5003;42565;53.342;-1.534;2024-01-16T06:11:39;7;7;
56688;PMS5003;42565;53.342;-1.534;2024-01-16T06:14:07;6;6;
56688;PMS5003;42565;53.342;-1.534;2024-01-16T06:16:33;6;5;
56688;PMS5003;42565;53.342;-1.534;2024-01-16T06:19:00;7;6;
56688;PMS5003;42565;53.342;-1.534;2024-01-16T06:21:27;7;6;
56688;PMS5003;42565;53.342;-1.534;2024-01-16T06:23:54;7;6;
56688;PMS5003;42565;53.342;-1.534;2024-01-16T06:26:21;6;5;
56688;PMS5003;42565;53.342;-1.534;2024-01-16T06:28:48;5;5;
56688;PMS5003;42565;53.342;-1.534;2024-01-16T06:31:16;7;7;
56688;PMS5003;42565;53.342;-1.534;2024-01-16T06:33:43;7;6;
56688;PMS5003;42565;53.342;-1.534;2024-01-16T06:36:10;7;5;
56688;PMS5003;42565;53.342;-1.534;2024-01-16T06:38:38;6;6;
56688;PMS5003;42565;53.342;-1.534;2024-01-16T06:41:05;6;6;
56688;PMS5003;42565;53.342;-1.534;2024-01-16T06:43:31;6;5;
56688;PMS5003;42565;53.342;-1.534;2024-01-16T06:45:58;6;6;
56688;PMS5003;42565;53.342;-1.534;2024-01-16T06:48:25;5;5;
56688;PMS5003;42565;53.342;-1.534;2024-01-16T06:50:53;7;7;
56688;PMS5003;42565;53.342;-1.534;2024-01-16T06:53:20;6;5;
56688;PMS5003;42565;53.342;-1.534;2024-01-16T06:55:47;6;6;
56688;PMS5003;42565;53.342;-1.534;2024-01-16T06:58:14;6;6;
56688;PMS5003;42565;53.342;-1.534;2024-01-16T07:00:41;5;5;
56688;PMS5003;42565;53.342;-1.534;2024-01-16T07:03:09;8;8;
56688;PMS5003;42565;53.342;-1.534;2024-01-16T07:05:36;6;5;
56688;PMS5003;42565;53.342;-1.534;2024-01-16T07:08:03;8;6;
56688;PMS5003;42565;53.342;-1.534;2024-01-16T07:10:30;5;5;
56688;PMS5003;42565;53.342;-1.534;2024-01-16T07:12:57;7;6;
56688;PMS5003;42565;53.342;-1.534;2024-01-16T07:15:25;7;6;
56688;PMS5003;42565;53.342;-1.534;2024-01-16T07:17:52;6;5;
56688;PMS5003;42565;53.342;-1.534;2024-01-16T07:20:20;8;6;
56688;PMS5003;42565;53.342;-1.534;2024-01-16T07:22:47;8;7;
56688;PMS5003;42565;53.342;-1.534;2024-01-16T07:25:14;10;9;
56688;PMS5003;42565;53.342;-1.534;2024-01-16T07:27:41;6;6;
56688;PMS5003;42565;53.342;-1.534;2024-01-16T07:30:09;7;7;
56688;PMS5003;42565;53.342;-1.534;2024-01-16T07:32:37;9;9;
56688;PMS5003;42565;53.342;-1.534;2024-01-16T07:35:05;9;8;
56688;PMS5003;42565;53.342;-1.534;2024-01-16T07:37:32;10;9;
56688;PMS5003;42565;53.342;-1.534;2024-01-16T07:39:58;12;10;
56688;PMS5003;42565;53.342;-1.534;2024-01-16T07:42:26;12;12;
56688;PMS5003;42565;53.342;-1.534;2024-01-16T07:44:53;15;14;
56688;PMS5003;42565;53.342;-1.534;2024-01-16T07:47:20;13;13;
56688;PMS5003;42565;53.342;-1.534;2024-01-16T07:49:49;12;12;
56688;PMS5003;42565;53.342;-1.534;2024-01-16T07:52:16;15;14;
56688;PMS5003;42565;53.342;-1.534;2024-01-16T07:54:44;13;13;
56688;PMS5003;42565;53.342;-1.534;2024-01-16T07:57:10;10;10;
56688;PMS5003;42565;53.342;-1.534;2024-01-16T07:59:37;13;13;
56688;PMS5003;42565;53.342;-1.534;2024-01-16T08:02:04;15;13;
56688;PMS5003;42565;53.342;-1.534;2024-01-16T08:04:31;14;14;
56688;PMS5003;42565;53.342;-1.534;2024-01-16T08:06:58;19;18;
56688;PMS5003;42565;53.342;-1.534;2024-01-16T08:09:26;16;16;
56688;PMS5003;42565;53.342;-1.534;2024-01-16T08:11:53;16;15;
56688;PMS5003;42565;53.342;-1.534;2024-01-16T08:14:20;20;18;
56688;PMS5003;42565;53.342;-1.534;2024-01-16T08:16:47;16;15;
56688;PMS5003;42565;53.342;-1.534;2024-01-16T08:19:14;18;15;
56688;PMS5003;42565;53.342;-1.534;2024-01-16T08:21:41;15;15;
56688;PMS5003;42565;53.342;-1.534;2024-01-16T08:24:09;16;15;
56688;PMS5003;42565;53.342;-1.534;2024-01-16T08:26:36;14;13;
56688;PMS5003;42565;53.342;-1.534;2024-01-16T08:29:03;13;13;
56688;PMS5003;42565;53.342;-1.534;2024-01-16T08:31:30;19;18;
56688;PMS5003;42565;53.342;-1.534;2024-01-16T08:33:57;16;15;
56688;PMS5003;42565;53.342;-1.534;2024-01-16T08:36:24;20;19;
56688;PMS5003;42565;53.342;-1.534;2024-01-16T08:38:51;18;16;
56688;PMS5003;42565;53.342;-1.534;2024-01-16T08:41:18;13;13;
56688;PMS5003;42565;53.342;-1.534;2024-01-16T08:43:45;18;17;
56688;PMS5003;42565;53.342;-1.534;2024-01-16T08:46:13;17;16;
56688;PMS5003;42565;53.342;-1.534;2024-01-16T08:48:40;16;14;
56688;PMS5003;42565;53.342;-1.534;2024-01-16T08:51:08;19;18;
56688;PMS5003;42565;53.342;-1.534;2024-01-16T08:53:38;14;14;
56688;PMS5003;42565;53.342;-1.534;2024-01-16T08:56:05;17;16;
56688;PMS5003;42565;53.342;-1.534;2024-01-16T08:58:37;14;13;
56688;PMS5003;42565;53.342;-1.534;2024-01-16T09:01:04;17;16;
56688;PMS5003;42565;53.342;-1.534;2024-01-16T09:03:32;15;14;
56688;PMS5003;42565;53.342;-1.534;2024-01-16T09:06:00;15;12;
56688;PMS5003;42565;53.342;-1.534;2024-01-16T09:08:27;16;15;
56688;PMS5003;42565;53.342;-1.534;2024-01-16T09:10:55;12;12;
56688;PMS5003;42565;53.342;-1.534;2024-01-16T09:13:23;11;11;
56688;PMS5003;42565;53.342;-1.534;2024-01-16T09:15:50;13;13;
56688;PMS5003;42565;53.342;-1.534;2024-01-16T09:18:17;12;12;
56688;PMS5003;42565;53.342;-1.534;2024-01-16T09:20:44;12;12;
56688;PMS5003;42565;53.342;-1.534;2024-01-16T09:23:11;17;15;
56688;PMS5003;42565;53.342;-1.534;2024-01-16T09:25:38;13;13;
56688;PMS5003;42565;53.342;-1.534;2024-01-16T09:28:05;11;11;
56688;PMS5003;42565;53.342;-1.534;2024-01-16T09:30:32;15;13;
56688;PMS5003;42565;53.342;-1.534;2024-01-16T09:32:59;15;15;
56688;PMS5003;42565;53.342;-1.534;2024-01-16T09:35:26;16;15;
56688;PMS5003;42565;53.342;-1.534;2024-01-16T09:37:53;12;12;
56688;PMS5003;42565;53.342;-1.534;2024-01-16T09:40:20;12;12;
56688;PMS5003;42565;53.342;-1.534;2024-01-16T09:42:47;16;14;
56688;PMS5003;42565;53.342;-1.534;2024-01-16T09:45:15;16;15;
56688;PMS5003;42565;53.342;-1.534;2024-01-16T09:47:46;15;14;
56688;PMS5003;42565;53.342;-1.534;2024-01-16T09:50:16;13;13;
56688;PMS5003;42565;53.342;-1.534;2024-01-16T09:52:44;16;13;
56688;PMS5003;42565;53.342;-1.534;2024-01-16T09:55:12;17;15;
56688;PMS5003;42565;53.342;-1.534;2024-01-16T09:57:40;16;16;
56688;PMS5003;42565;53.342;-1.534;2024-01-16T10:00:08;15;15;
56688;PMS5003;42565;53.342;-1.534;2024-01-16T10:02:37;17;16;
56688;PMS5003;42565;53.342;-1.534;2024-01-16T10:05:05;17;16;
56688;PMS5003;42565;53.342;-1.534;2024-01-16T10:07:33;17;16;
56688;PMS5003;42565;53.342;-1.534;2024-01-16T10:10:04;26;23;
56688;PMS5003;42565;53.342;-1.534;2024-01-16T10:12:32;20;19;
56688;PMS5003;42565;53.342;-1.534;2024-01-16T10:14:59;17;16;
56688;PMS5003;42565;53.342;-1.534;2024-01-16T10:17:35;17;16;
56688;PMS5003;42565;53.342;-1.534;2024-01-16T10:20:03;13;12;
56688;PMS5003;42565;53.342;-1.534;2024-01-16T10:22:31;13;13;
56688;PMS5003;42565;53.342;-1.534;2024-01-16T10:25:05;14;13;
56688;PMS5003;42565;53.342;-1.534;2024-01-16T10:27:33;16;13;
56688;PMS5003;42565;53.342;-1.534;2024-01-16T10:30:01;15;14;
56688;PMS5003;42565;53.342;-1.534;2024-01-16T10:32:30;15;14;
56688;PMS5003;42565;53.342;-1.534;2024-01-16T10:35:02;15;14;
56688;PMS5003;42565;53.342;-1.534;2024-01-16T10:37:29;15;13;
56688;PMS5003;42565;53.342;-1.534;2024-01-16T10:39:57;13;12;
56688;PMS5003;42565;53.342;-1.534;2024-01-16T10:42:24;12;11;
56688;PMS5003;42565;53.342;-1.534;2024-01-16T10:44:54;13;12;
56688;PMS5003;42565;53.342;-1.534;2024-01-16T10:47:21;9;9;
56688;PMS5003;42565;53.342;-1.534;2024-01-16T10:49:49;19;18;
56688;PMS5003;42565;53.342;-1.534;2024-01-16T10:52:15;11;11;
56688;PMS5003;42565;53.342;-1.534;2024-01-16T10:54:44;13;12;
56688;PMS5003;42565;53.342;-1.534;2024-01-16T10:57:15;11;11;
56688;PMS5003;42565;53.342;-1.534;2024-01-16T10:59:45;12;11;
56688;PMS5003;42565;53.342;-1.534;2024-01-16T11:02:17;11;10;
56688;PMS5003;42565;53.342;-1.534;2024-01-16T11:04:47;8;8;
56688;PMS5003;42565;53.342;-1.534;2024-01-16T11:07:17;8;8;
56688;PMS5003;42565;53.342;-1.534;2024-01-16T11:09:45;7;7;
56688;PMS5003;42565;53.342;-1.534;2024-01-16T11:12:12;9;9;
56688;PMS5003;42565;53.342;-1.534;2024-01-16T11:14:39;13;12;
56688;PMS5003;42565;53.342;-1.534;2024-01-16T11:17:07;7;6;
56688;PMS5003;42565;53.342;-1.534;2024-01-16T11:19:35;7;6;
56688;PMS5003;42565;53.342;-1.534;2024-01-16T11:22:02;7;7;
56688;PMS5003;42565;53.342;-1.534;2024-01-16T11:24:30;11;11;
56688;PMS5003;42565;53.342;-1.534;2024-01-16T11:26:57;13;11;
56688;PMS5003;42565;53.342;-1.534;2024-01-16T11:29:40;8;7;
56688;PMS5003;42565;53.342;-1.534;2024-01-16T11:32:07;8;7;
56688;PMS5003;42565;53.342;-1.534;2024-01-16T11:35:06;8;7;
56688;PMS5003;42565;53.342;-1.534;2024-01-16T11:37:34;6;5;
56688;PMS5003;42565;53.342;-1.534;2024-01-16T11:40:35;4;4;
56688;PMS5003;42565;53.342;-1.534;2024-01-16T11:43:35;12;12;
56688;PMS5003;42565;53.342;-1.534;2024-01-16T11:46:04;13;12;
56688;PMS5003;42565;53.342;-1.534;2024-01-16T11:48:32;16;15;
56688;PMS5003;42565;53.342;-1.534;2024-01-16T11:50:59;15;12;
56688;PMS5003;42565;53.342;-1.534;2024-01-16T11:53:35;11;9;
56688;PMS5003;42565;53.342;-1.534;2024-01-16T11:56:09;9;9;
56688;PMS5003;42565;53.342;-1.534;2024-01-16T11:58:25;9;9;
56688;PMS5003;42565;53.342;-1.534;2024-01-16T12:01:06;5;4;
56688;PMS5003;42565;53.342;-1.534;2024-01-16T12:03:33;6;5;
56688;PMS5003;42565;53.342;-1.534;2024-01-16T12:06:01;4;4;
56688;PMS5003;42565;53.342;-1.534;2024-01-16T12:08:28;7;5;
56688;PMS5003;42565;53.342;-1.534;2024-01-16T12:10:55;4;3;
56688;PMS5003;42565;53.342;-1.534;2024-01-16T12:13:22;4;2;
56688;PMS5003;42565;53.342;-1.534;2024-01-16T12:15:49;4;4;
56688;PMS5003;42565;53.342;-1.534;2024-01-16T12:18:26;6;5;
56688;PMS5003;42565;53.342;-1.534;2024-01-16T12:20:53;5;4;
56688;PMS5003;42565;53.342;-1.534;2024-01-16T12:23:20;4;4;
56688;PMS5003;42565;53.342;-1.534;2024-01-16T12:25:51;4;3;
56688;PMS5003;42565;53.342;-1.534;2024-01-16T12:28:20;3;3;
56688;PMS5003;42565;53.342;-1.534;2024-01-16T12:30:48;3;2;
56688;PMS5003;42565;53.342;-1.534;2024-01-16T12:33:20;2;2;
56688;PMS5003;42565;53.342;-1.534;2024-01-16T12:35:49;3;2;
56688;PMS5003;42565;53.342;-1.534;2024-01-16T12:38:16;3;3;
56688;PMS5003;42565;53.342;-1.534;2024-01-16T12:40:44;2;2;
56688;PMS5003;42565;53.342;-1.534;2024-01-16T12:43:17;5;5;
56688;PMS5003;42565;53.342;-1.534;2024-01-16T12:45:45;5;5;
56688;PMS5003;42565;53.342;-1.534;2024-01-16T12:48:13;6;6;
56688;PMS5003;42565;53.342;-1.534;2024-01-16T12:50:40;5;5;
56688;PMS5003;42565;53.342;-1.534;2024-01-16T12:53:09;4;4;
56688;PMS5003;42565;53.342;-1.534;2024-01-16T12:55:37;4;4;
56688;PMS5003;42565;53.342;-1.534;2024-01-16T12:58:14;3;3;
56688;PMS5003;42565;53.342;-1.534;2024-01-16T13:00:42;5;4;
56688;PMS5003;42565;53.342;-1.534;2024-01-16T13:03:17;4;4;
56688;PMS5003;42565;53.342;-1.534;2024-01-16T13:05:55;4;4;
56688;PMS5003;42565;53.342;-1.534;2024-01-16T13:08:23;5;5;
56688;PMS5003;42565;53.342;-1.534;2024-01-16T13:11:07;4;4;
56688;PMS5003;42565;53.342;-1.534;2024-01-16T13:13:35;4;3;
56688;PMS5003;42565;53.342;-1.534;2024-01-16T13:16:03;4;3;
56688;PMS5003;42565;53.342;-1.534;2024-01-16T13:18:31;3;3;
56688;PMS5003;42565;53.342;-1.534;2024-01-16T13:20:59;4;3;
56688;PMS5003;42565;53.342;-1.534;2024-01-16T13:23:27;4;3;
56688;PMS5003;42565;53.342;-1.534;2024-01-16T13:25:55;6;4;
56688;PMS5003;42565;53.342;-1.534;2024-01-16T13:28:23;4;3;
56688;PMS5003;42565;53.342;-1.534;2024-01-16T13:30:50;4;4;
56688;PMS5003;42565;53.342;-1.534;2024-01-16T13:33:18;7;5;
56688;PMS5003;42565;53.342;-1.534;2024-01-16T13:35:46;4;4;
56688;PMS5003;42565;53.342;-1.534;2024-01-16T13:38:13;6;4;
56688;PMS5003;42565;53.342;-1.534;2024-01-16T13:40:43;4;4;
56688;PMS5003;42565;53.342;-1.534;2024-01-16T13:43:09;4;3;
56688;PMS5003;42565;53.342;-1.534;2024-01-16T13:45:37;4;3;
56688;PMS5003;42565;53.342;-1.534;2024-01-16T13:48:05;3;3;
56688;PMS5003;42565;53.342;-1.534;2024-01-16T13:50:33;3;3;
56688;PMS5003;42565;53.342;-1.534;2024-01-16T13:53:00;5;3;
56688;PMS5003;42565;53.342;-1.534;2024-01-16T13:55:28;5;4;
56688;PMS5003;42565;53.342;-1.534;2024-01-16T13:57:55;5;4;
56688;PMS5003;42565;53.342;-1.534;2024-01-16T14:00:22;5;4;
56688;PMS5003;42565;53.342;-1.534;2024-01-16T14:02:49;8;6;
56688;PMS5003;42565;53.342;-1.534;2024-01-16T14:05:17;4;4;
56688;PMS5003;42565;53.342;-1.534;2024-01-16T14:07:46;3;3;
56688;PMS5003;42565;53.342;-1.534;2024-01-16T14:10:14;5;5;
56688;PMS5003;42565;53.342;-1.534;2024-01-16T14:12:43;3;3;
56688;PMS5003;42565;53.342;-1.534;2024-01-16T14:15:11;5;5;
56688;PMS5003;42565;53.342;-1.534;2024-01-16T14:17:39;6;4;
56688;PMS5003;42565;53.342;-1.534;2024-01-16T14:20:06;4;4;
56688;PMS5003;42565;53.342;-1.534;2024-01-16T14:22:34;7;5;
56688;PMS5003;42565;53.342;-1.534;2024-01-16T14:25:01;3;3;
56688;PMS5003;42565;53.342;-1.534;2024-01-16T14:27:27;6;5;
56688;PMS5003;42565;53.342;-1.534;2024-01-16T14:29:54;5;5;
56688;PMS5003;42565;53.342;-1.534;2024-01-16T14:32:21;7;7;
56688;PMS5003;42565;53.342;-1.534;2024-01-16T14:34:48;8;8;
56688;PMS5003;42565;53.342;-1.534;2024-01-16T14:37:15;8;8;
56688;PMS5003;42565;53.342;-1.534;2024-01-16T14:39:42;8;8;
56688;PMS5003;42565;53.342;-1.534;2024-01-16T14:42:08;11;8;
56688;PMS5003;42565;53.342;-1.534;2024-01-16T14:44:35;8;6;
56688;PMS5003;42565;53.342;-1.534;2024-01-16T14:47:02;10;8;
56688;PMS5003;42565;53.342;-1.534;2024-01-16T14:49:29;9;8;
56688;PMS5003;42565;53.342;-1.534;2024-01-16T14:51:57;6;5;
56688;PMS5003;42565;53.342;-1.534;2024-01-16T14:54:23;3;3;
56688;PMS5003;42565;53.342;-1.534;2024-01-16T14:56:50;4;4;
56688;PMS5003;42565;53.342;-1.534;2024-01-16T14:59:17;4;4;
56688;PMS5003;42565;53.342;-1.534;2024-01-16T15:01:44;4;4;
56688;PMS5003;42565;53.342;-1.534;2024-01-16T15:04:11;5;4;
56688;PMS5003;42565;53.342;-1.534;2024-01-16T15:06:38;2;2;
56688;PMS5003;42565;53.342;-1.534;2024-01-16T15:09:04;4;4;
56688;PMS5003;42565;53.342;-1.534;2024-01-16T15:11:31;7;6;
56688;PMS5003;42565;53.342;-1.534;2024-01-16T15:13:58;5;5;
56688;PMS5003;42565;53.342;-1.534;2024-01-16T15:16:25;6;5;
56688;PMS5003;42565;53.342;-1.534;2024-01-16T15:18:53;6;5;
56688;PMS5003;42565;53.342;-1.534;2024-01-16T15:21:21;5;4;
56688;PMS5003;42565;53.342;-1.534;2024-01-16T15:23:48;8;8;
56688;PMS5003;42565;53.342;-1.534;2024-01-16T15:26:15;6;6;
56688;PMS5003;42565;53.342;-1.534;2024-01-16T15:28:42;8;7;
56688;PMS5003;42565;53.342;-1.534;2024-01-16T15:31:10;6;6;
56688;PMS5003;42565;53.342;-1.534;2024-01-16T15:33:38;4;4;
56688;PMS5003;42565;53.342;-1.534;2024-01-16T15:36:06;3;3;
56688;PMS5003;42565;53.342;-1.534;2024-01-16T15:38:33;5;4;
56688;PMS5003;42565;53.342;-1.534;2024-01-16T15:41:06;3;3;
56688;PMS5003;42565;53.342;-1.534;2024-01-16T15:43:34;6;5;
56688;PMS5003;42565;53.342;-1.534;2024-01-16T15:46:01;3;3;
56688;PMS5003;42565;53.342;-1.534;2024-01-16T15:48:29;3;3;
56688;PMS5003;42565;53.342;-1.534;2024-01-16T15:50:57;4;4;
56688;PMS5003;42565;53.342;-1.534;2024-01-16T15:53:23;4;3;
56688;PMS5003;42565;53.342;-1.534;2024-01-16T15:55:50;4;4;
56688;PMS5003;42565;53.342;-1.534;2024-01-16T15:58:17;4;4;
56688;PMS5003;42565;53.342;-1.534;2024-01-16T16:00:45;4;4;
56688;PMS5003;42565;53.342;-1.534;2024-01-16T16:03:12;4;4;
56688;PMS5003;42565;53.342;-1.534;2024-01-16T16:05:39;5;5;
56688;PMS5003;42565;53.342;-1.534;2024-01-16T16:08:06;5;4;
56688;PMS5003;42565;53.342;-1.534;2024-01-16T16:10:33;4;3;
56688;PMS5003;42565;53.342;-1.534;2024-01-16T16:13:00;5;5;
56688;PMS5003;42565;53.342;-1.534;2024-01-16T16:15:26;7;6;
56688;PMS5003;42565;53.342;-1.534;2024-01-16T16:17:53;4;4;
56688;PMS5003;42565;53.342;-1.534;2024-01-16T16:20:20;7;5;
56688;PMS5003;42565;53.342;-1.534;2024-01-16T16:22:47;5;5;
56688;PMS5003;42565;53.342;-1.534;2024-01-16T16:25:14;7;5;